Time;durP1;ratioP1;P1;durP2;ratioP2;P2;SDS_P1;SDS_P2;PMS_P1;PMS_P2;Temp;Humidity;BMP_temperature;BMP_pressure;BME280_temperature;BME280_humidity;BME280_pressure;Samples;Min_cycle;Max_cycle;Signal;HPM_P1;HPM_P2
2023/11/05 00:00:36;;;;;;;6.93;1.80;;;10.80;99.90;;;;;;4144521;28;20034;-66
2023/11/05 00:02:36;;;;;;;5.15;1.73;;;10.80;99.90;;;;;;4150146;28;20029;-66
2023/11/05 00:04:37;;;;;;;7.57;2.15;;;10.80;99.90;;;;;;4164153;28;20049;-67
2023/11/05 00:06:38;;;;;;;7.95;1.80;;;10.80;99.90;;;;;;4148599;28;20050;-74
2023/11/05 00:08:38;;;;;;;8.18;2.00;;;10.80;99.90;;;;;;4140741;28;20120;-74
2023/11/05 00:10:39;;;;;;;9.23;1.90;;;10.80;99.90;;;;;;4151351;28;20042;-74
2023/11/05 00:12:39;;;;;;;6.40;1.80;;;10.80;99.90;;;;;;4148071;28;20034;-74
2023/11/05 00:14:40;;;;;;;4.93;1.50;;;10.80;99.90;;;;;;4141863;28;20314;-74
2023/11/05 00:16:41;;;;;;;6.38;1.95;;;10.80;99.90;;;;;;4149442;28;20052;-74
2023/11/05 00:18:42;;;;;;;7.13;1.67;;;10.80;99.90;;;;;;4147119;28;21654;-74
2023/11/05 00:20:42;;;;;;;7.43;1.60;;;10.70;99.90;;;;;;4147435;28;20135;-74
2023/11/05 00:22:43;;;;;;;9.27;2.10;;;10.70;99.90;;;;;;4152509;28;20390;-74
2023/11/05 00:24:43;;;;;;;7.70;2.10;;;10.70;99.90;;;;;;4146377;28;20474;-74
2023/11/05 00:26:44;;;;;;;8.00;1.60;;;10.60;99.90;;;;;;4147749;28;20384;-74
2023/11/05 00:28:45;;;;;;;11.50;2.58;;;10.70;99.90;;;;;;4148777;28;20034;-74
2023/11/05 00:30:45;;;;;;;7.82;2.05;;;10.60;99.90;;;;;;4135391;28;20114;-74
2023/11/05 00:32:46;;;;;;;7.43;2.72;;;10.70;99.90;;;;;;4137477;28;20042;-74
2023/11/05 00:34:46;;;;;;;8.40;2.00;;;10.60;99.90;;;;;;4142365;28;20062;-74
2023/11/05 00:36:47;;;;;;;6.65;1.80;;;10.70;99.90;;;;;;4145027;28;20494;-74
2023/11/05 00:38:48;;;;;;;5.50;1.73;;;10.70;99.90;;;;;;4142416;28;20120;-73
2023/11/05 00:40:48;;;;;;;7.40;2.20;;;10.60;99.90;;;;;;4144091;28;20052;-73
2023/11/05 00:42:49;;;;;;;8.63;2.28;;;10.60;99.90;;;;;;4143374;28;20505;-73
2023/11/05 00:44:50;;;;;;;7.55;2.13;;;10.70;99.90;;;;;;4147906;28;20126;-73
2023/11/05 00:46:50;;;;;;;5.05;1.83;;;10.60;99.90;;;;;;4145622;28;20342;-73
2023/11/05 00:48:52;;;;;;;6.22;1.77;;;10.70;99.90;;;;;;4143486;28;20041;-75
2023/11/05 00:50:53;;;;;;;6.68;1.73;;;10.70;99.90;;;;;;4143072;28;20069;-73
2023/11/05 00:52:53;;;;;;;5.68;1.67;;;10.70;99.90;;;;;;4147003;28;20044;-74
2023/11/05 00:54:54;;;;;;;6.15;1.63;;;10.70;99.90;;;;;;4146295;28;20050;-73
2023/11/05 00:56:55;;;;;;;7.63;1.85;;;10.70;99.90;;;;;;4143211;28;20109;-73
2023/11/05 00:58:55;;;;;;;6.80;1.70;;;10.70;99.90;;;;;;4144485;28;20422;-73
2023/11/05 01:00:56;;;;;;;6.20;1.45;;;10.70;99.90;;;;;;4145608;28;20498;-74
2023/11/05 01:02:56;;;;;;;4.10;1.33;;;10.70;99.90;;;;;;4143401;28;20042;-73
2023/11/05 01:04:57;;;;;;;5.50;1.98;;;10.70;99.90;;;;;;4148819;28;20046;-73
2023/11/05 01:06:58;;;;;;;6.80;1.63;;;10.70;99.90;;;;;;4144995;28;20430;-74
2023/11/05 01:08:58;;;;;;;5.10;1.70;;;10.70;99.90;;;;;;4144244;28;20188;-74
2023/11/05 01:10:59;;;;;;;8.48;1.85;;;10.70;99.90;;;;;;4141200;28;20108;-73
2023/11/05 01:12:59;;;;;;;5.32;1.42;;;10.60;99.90;;;;;;4143327;28;20034;-74
2023/11/05 01:15:01;;;;;;;5.90;1.50;;;10.70;99.90;;;;;;4145903;28;20114;-74
2023/11/05 01:17:01;;;;;;;4.47;1.45;;;10.70;99.90;;;;;;4140470;28;20103;-69
2023/11/05 01:19:02;;;;;;;4.43;1.35;;;10.70;99.90;;;;;;4148077;28;20034;-69
2023/11/05 01:21:03;;;;;;;5.47;1.40;;;10.70;99.90;;;;;;4149373;28;20069;-69
2023/11/05 01:23:04;;;;;;;5.53;1.77;;;10.70;99.90;;;;;;4150532;28;20050;-70
2023/11/05 01:25:05;;;;;;;3.35;1.30;;;10.70;99.90;;;;;;4145695;28;20033;-71
2023/11/05 01:27:06;;;;;;;4.53;1.33;;;10.70;99.90;;;;;;4145963;28;20502;-70
2023/11/05 01:29:07;;;;;;;4.45;1.58;;;10.70;99.90;;;;;;4144774;28;20029;-71
2023/11/05 01:31:07;;;;;;;6.85;1.58;;;10.70;99.90;;;;;;4139560;28;22725;-71
2023/11/05 01:33:08;;;;;;;4.65;1.75;;;10.70;99.90;;;;;;4144234;28;20070;-71
2023/11/05 01:35:08;;;;;;;5.60;1.55;;;10.70;99.90;;;;;;4145026;28;20470;-71
2023/11/05 01:37:09;;;;;;;5.35;1.70;;;10.70;99.90;;;;;;4148117;28;20038;-71
2023/11/05 01:39:10;;;;;;;3.67;1.45;;;10.70;99.90;;;;;;4141984;28;20393;-71
2023/11/05 01:41:11;;;;;;;4.65;1.70;;;10.70;99.90;;;;;;4141699;28;20034;-71
2023/11/05 01:43:11;;;;;;;6.22;1.65;;;10.70;99.90;;;;;;4142611;28;20096;-71
2023/11/05 01:45:12;;;;;;;3.97;1.40;;;10.70;99.90;;;;;;4145648;28;20081;-72
2023/11/05 01:47:13;;;;;;;6.35;1.35;;;10.60;99.90;;;;;;4147238;28;20112;-72
2023/11/05 01:49:14;;;;;;;5.00;1.30;;;10.70;99.90;;;;;;4144465;28;20045;-72
2023/11/05 01:51:16;;;;;;;5.10;1.50;;;10.70;99.90;;;;;;4145473;28;20078;-71
2023/11/05 01:53:17;;;;;;;7.50;1.92;;;10.70;99.90;;;;;;4151105;28;20125;-71
2023/11/05 01:55:18;;;;;;;6.28;1.83;;;10.70;99.90;;;;;;4148580;28;20407;-70
2023/11/05 01:57:18;;;;;;;5.38;1.70;;;10.60;99.90;;;;;;4149076;28;20287;-71
2023/11/05 01:59:19;;;;;;;3.47;1.10;;;10.60;99.90;;;;;;4145825;28;20038;-71
2023/11/05 02:01:21;;;;;;;5.15;1.73;;;10.60;99.90;;;;;;4152741;28;20049;-71
2023/11/05 02:03:22;;;;;;;4.15;1.50;;;10.60;99.90;;;;;;4143753;28;20037;-71
2023/11/05 02:05:23;;;;;;;4.82;1.40;;;10.70;99.90;;;;;;4142865;28;20526;-71
2023/11/05 02:07:24;;;;;;;3.55;1.63;;;10.70;99.90;;;;;;4143478;28;20026;-72
2023/11/05 02:09:24;;;;;;;6.95;1.88;;;10.60;99.90;;;;;;4142367;28;20037;-72
2023/11/05 02:11:25;;;;;;;4.20;1.52;;;10.60;99.90;;;;;;4144244;28;20042;-72
2023/11/05 02:13:26;;;;;;;6.78;1.30;;;10.70;99.90;;;;;;4140339;28;20038;-71
2023/11/05 02:15:27;;;;;;;6.55;2.00;;;10.70;99.90;;;;;;4143452;28;20674;-71
2023/11/05 02:17:28;;;;;;;7.50;1.67;;;10.60;99.90;;;;;;4138773;28;20096;-72
2023/11/05 02:19:28;;;;;;;6.13;1.60;;;10.70;99.90;;;;;;4144218;28;20037;-72
2023/11/05 02:21:39;;;;;;;4.95;1.63;;;10.70;99.90;;;;;;4143787;28;20038;-71
2023/11/05 02:23:40;;;;;;;5.30;1.60;;;10.70;99.90;;;;;;4150432;28;20038;-72
2023/11/05 02:25:40;;;;;;;5.25;1.65;;;10.70;99.90;;;;;;4144403;28;20490;-72
2023/11/05 02:27:41;;;;;;;5.57;1.38;;;10.70;99.90;;;;;;4136302;28;20038;-74
2023/11/05 02:29:41;;;;;;;6.55;1.52;;;10.70;99.90;;;;;;4143507;28;20100;-74
2023/11/05 02:31:44;;;;;;;8.07;2.13;;;10.70;99.90;;;;;;4138405;28;20053;-74
2023/11/05 02:33:45;;;;;;;7.43;1.85;;;10.70;99.90;;;;;;4142534;28;20045;-74
2023/11/05 02:35:46;;;;;;;5.63;1.67;;;10.70;99.90;;;;;;4148407;28;20038;-74
2023/11/05 02:37:46;;;;;;;5.95;1.60;;;10.70;99.90;;;;;;4139908;28;20486;-74
2023/11/05 02:39:47;;;;;;;10.07;2.08;;;10.70;99.90;;;;;;4145639;28;20132;-73
2023/11/05 02:41:47;;;;;;;7.32;1.83;;;10.60;99.90;;;;;;4143455;28;20045;-73
2023/11/05 02:43:48;;;;;;;4.95;1.63;;;10.60;99.90;;;;;;4141136;28;20483;-74
2023/11/05 02:45:49;;;;;;;5.97;1.77;;;10.60;99.90;;;;;;4140781;28;20037;-74
2023/11/05 02:47:49;;;;;;;2.78;1.05;;;10.70;99.90;;;;;;4145269;28;20092;-74
2023/11/05 02:49:50;;;;;;;4.35;1.80;;;10.70;99.90;;;;;;4147755;28;20034;-74
2023/11/05 02:51:52;;;;;;;4.07;1.65;;;10.70;99.90;;;;;;4155097;28;20041;-74
2023/11/05 02:53:53;;;;;;;8.05;1.35;;;10.60;99.90;;;;;;4142867;28;20052;-74
2023/11/05 02:55:53;;;;;;;4.03;1.02;;;10.70;99.90;;;;;;4146954;28;20030;-74
2023/11/05 02:57:54;;;;;;;7.15;1.42;;;10.70;99.90;;;;;;4149177;28;20070;-74
2023/11/05 02:59:55;;;;;;;3.67;1.17;;;10.70;99.90;;;;;;4145482;28;20033;-74
2023/11/05 03:01:55;;;;;;;1.65;0.70;;;10.70;99.90;;;;;;4149449;28;20034;-74
2023/11/05 03:03:56;;;;;;;5.63;1.23;;;10.70;99.90;;;;;;4146026;28;20041;-74
2023/11/05 03:05:56;;;;;;;3.10;1.23;;;10.70;99.90;;;;;;4141903;28;20041;-74
2023/11/05 03:07:57;;;;;;;4.50;1.15;;;10.70;99.90;;;;;;4142346;28;20053;-74
2023/11/05 03:09:58;;;;;;;5.53;1.40;;;10.70;99.90;;;;;;4141617;28;20106;-74
2023/11/05 03:11:58;;;;;;;2.78;0.93;;;10.70;99.90;;;;;;4141107;28;20045;-74
2023/11/05 03:13:59;;;;;;;8.05;1.45;;;10.80;99.90;;;;;;4145448;28;20390;-74
2023/11/05 03:15:59;;;;;;;4.53;1.38;;;10.70;99.90;;;;;;4140865;28;20038;-75
2023/11/05 03:18:00;;;;;;;1.85;0.75;;;10.70;99.90;;;;;;4146807;28;20053;-75
2023/11/05 03:20:01;;;;;;;4.93;1.13;;;10.70;99.90;;;;;;4141138;28;20561;-74
2023/11/05 03:22:01;;;;;;;1.83;0.88;;;10.80;99.90;;;;;;4143114;28;20041;-74
2023/11/05 03:24:03;;;;;;;3.13;0.95;;;10.80;99.90;;;;;;4141282;28;20070;-74
2023/11/05 03:26:03;;;;;;;2.40;0.70;;;10.80;99.90;;;;;;4154741;28;20046;-74
2023/11/05 03:28:04;;;;;;;4.88;1.10;;;10.90;99.90;;;;;;4148424;28;20115;-74
2023/11/05 03:30:05;;;;;;;6.40;1.15;;;10.90;99.90;;;;;;4140018;28;20109;-74
2023/11/05 03:32:06;;;;;;;7.50;1.55;;;10.90;99.90;;;;;;4141164;28;20441;-73
2023/11/05 03:34:07;;;;;;;4.03;1.13;;;10.90;99.90;;;;;;4146885;28;20050;-73
2023/11/05 03:36:08;;;;;;;3.88;0.90;;;11.00;99.90;;;;;;4145244;28;20148;-68
2023/11/05 03:38:08;;;;;;;2.40;1.00;;;10.90;99.90;;;;;;4148119;28;20471;-68
2023/11/05 03:40:09;;;;;;;2.63;0.90;;;11.00;99.90;;;;;;4142033;28;20084;-69
2023/11/05 03:42:10;;;;;;;2.78;1.00;;;11.00;99.90;;;;;;4144020;28;20081;-68
2023/11/05 03:44:11;;;;;;;5.82;1.33;;;11.00;99.90;;;;;;4146440;28;20043;-67
2023/11/05 03:46:13;;;;;;;4.18;1.30;;;11.00;99.90;;;;;;4142324;28;20475;-67
2023/11/05 03:48:13;;;;;;;4.53;1.17;;;11.00;99.90;;;;;;4146844;28;20026;-68
2023/11/05 03:50:14;;;;;;;3.00;0.85;;;11.00;99.90;;;;;;4142597;28;20044;-68
2023/11/05 03:52:15;;;;;;;4.55;1.25;;;11.00;99.90;;;;;;4144266;28;20092;-68
2023/11/05 03:54:16;;;;;;;3.15;1.05;;;11.00;99.90;;;;;;4141366;28;20049;-68
2023/11/05 03:56:17;;;;;;;3.33;1.25;;;11.00;99.90;;;;;;4142316;28;20042;-68
2023/11/05 03:58:17;;;;;;;4.82;1.00;;;11.00;99.90;;;;;;4140430;28;20116;-68
2023/11/05 04:00:18;;;;;;;3.45;1.20;;;11.00;99.90;;;;;;4142302;28;20462;-68
2023/11/05 04:02:21;;;;;;;5.55;1.42;;;11.00;99.90;;;;;;4142393;28;20033;-70
2023/11/05 04:04:22;;;;;;;2.75;0.88;;;11.00;99.90;;;;;;4144946;28;20501;-68
2023/11/05 04:06:22;;;;;;;5.13;1.05;;;10.90;99.90;;;;;;4146542;28;20038;-68
2023/11/05 04:08:23;;;;;;;6.15;1.25;;;10.90;99.90;;;;;;4153178;28;20030;-68
2023/11/05 04:10:24;;;;;;;2.67;0.88;;;10.90;99.90;;;;;;4146794;28;20320;-68
2023/11/05 04:12:25;;;;;;;2.03;0.77;;;10.90;99.90;;;;;;4150235;28;20045;-68
2023/11/05 04:14:26;;;;;;;3.95;1.17;;;10.90;99.90;;;;;;4143985;28;20057;-68
2023/11/05 04:16:26;;;;;;;2.63;0.80;;;10.90;99.90;;;;;;4144884;28;20057;-69
2023/11/05 04:18:27;;;;;;;2.60;1.10;;;11.00;99.90;;;;;;4141762;28;20116;-68
2023/11/05 04:20:27;;;;;;;2.47;0.90;;;11.00;99.90;;;;;;4142467;28;20344;-68
2023/11/05 04:22:28;;;;;;;1.77;0.70;;;11.00;99.90;;;;;;4144606;28;20057;-68
2023/11/05 04:24:29;;;;;;;1.77;0.80;;;11.00;99.90;;;;;;4147087;28;20038;-68
2023/11/05 04:26:29;;;;;;;2.30;0.75;;;11.00;99.90;;;;;;4150538;28;20033;-68
2023/11/05 04:28:30;;;;;;;3.38;0.90;;;11.00;99.90;;;;;;4146060;28;20486;-68
2023/11/05 04:30:30;;;;;;;2.50;0.70;;;11.00;99.90;;;;;;4130704;28;21344;-68
2023/11/05 04:32:31;;;;;;;2.22;0.77;;;11.00;99.90;;;;;;4126498;28;20031;-68
2023/11/05 04:34:32;;;;;;;2.92;0.70;;;11.00;99.90;;;;;;4126742;28;20049;-67
2023/11/05 04:36:39;;;;;;;3.58;1.08;;;11.00;99.90;;;;;;4125620;28;20084;-67
2023/11/05 04:38:40;;;;;;;3.92;0.90;;;11.00;99.90;;;;;;4124128;28;20041;-68
2023/11/05 04:40:41;;;;;;;3.28;0.80;;;11.00;99.90;;;;;;4124874;28;20710;-68
2023/11/05 04:42:41;;;;;;;3.55;1.02;;;11.00;99.90;;;;;;4120124;28;20027;-68
2023/11/05 04:44:42;;;;;;;4.53;1.08;;;11.00;99.90;;;;;;4124653;28;20601;-68
2023/11/05 04:46:42;;;;;;;3.83;0.90;;;11.00;99.90;;;;;;4107513;28;20403;-79
2023/11/05 04:48:43;;;;;;;1.50;0.80;;;11.00;99.90;;;;;;4126460;28;20093;-79
2023/11/05 04:50:44;;;;;;;4.15;0.85;;;11.00;99.90;;;;;;4122479;28;20376;-79
2023/11/05 04:52:44;;;;;;;2.58;0.90;;;11.10;99.90;;;;;;4126486;28;20125;-79
2023/11/05 04:54:45;;;;;;;1.08;0.70;;;11.00;99.90;;;;;;4126235;28;20041;-80
2023/11/05 04:56:45;;;;;;;2.17;0.80;;;11.00;99.90;;;;;;4124143;28;20402;-78
2023/11/05 04:58:46;;;;;;;1.90;0.47;;;11.00;99.90;;;;;;4126598;28;20078;-77
2023/11/05 05:00:47;;;;;;;1.63;0.77;;;11.00;99.90;;;;;;4123870;28;20046;-77
2023/11/05 05:02:47;;;;;;;1.77;0.70;;;11.00;99.90;;;;;;4125799;28;20476;-78
2023/11/05 05:04:48;;;;;;;1.52;0.73;;;11.00;99.90;;;;;;4125548;28;20047;-79
2023/11/05 05:06:50;;;;;;;1.98;1.05;;;11.00;99.90;;;;;;4122248;28;20125;-75
2023/11/05 05:08:51;;;;;;;2.28;0.75;;;11.00;99.90;;;;;;4124334;28;20518;-79
2023/11/05 05:10:51;;;;;;;1.13;0.63;;;11.00;99.90;;;;;;4106044;28;20035;-79
2023/11/05 05:12:52;;;;;;;2.50;0.80;;;11.00;99.90;;;;;;4126390;28;20545;-79
2023/11/05 05:14:52;;;;;;;1.15;0.60;;;11.00;99.90;;;;;;4122501;28;20515;-79
2023/11/05 05:16:53;;;;;;;1.17;0.50;;;11.00;99.90;;;;;;4121528;28;20110;-79
2023/11/05 05:18:54;;;;;;;1.65;0.70;;;11.10;99.90;;;;;;4125521;28;20542;-80
2023/11/05 05:20:54;;;;;;;1.25;0.50;;;11.10;99.90;;;;;;4123924;28;20076;-79
2023/11/05 05:22:55;;;;;;;0.73;0.60;;;11.10;99.90;;;;;;4108992;28;20027;-79
2023/11/05 05:24:56;;;;;;;2.13;0.60;;;11.10;99.90;;;;;;4125408;28;20053;-79
2023/11/05 05:26:57;;;;;;;2.25;0.50;;;11.10;99.90;;;;;;4124300;28;20523;-76
2023/11/05 05:28:57;;;;;;;2.30;0.60;;;11.10;99.90;;;;;;4125746;28;20074;-78
2023/11/05 05:30:58;;;;;;;3.00;1.15;;;11.10;99.90;;;;;;4140693;28;20053;-78
2023/11/05 05:32:58;;;;;;;1.23;0.50;;;11.10;99.90;;;;;;4148578;28;20643;-79
2023/11/05 05:34:59;;;;;;;1.30;0.70;;;11.10;99.90;;;;;;4145642;28;20038;-78
2023/11/05 05:37:00;;;;;;;1.27;0.60;;;11.10;99.90;;;;;;4144265;28;20483;-79
2023/11/05 05:39:01;;;;;;;0.63;0.40;;;11.10;99.90;;;;;;4142705;28;20125;-78
2023/11/05 05:41:01;;;;;;;1.85;0.80;;;11.20;99.90;;;;;;4143332;28;20066;-78
2023/11/05 05:43:03;;;;;;;1.35;0.60;;;11.10;99.90;;;;;;4151398;28;20042;-79
2023/11/05 05:45:04;;;;;;;0.88;0.57;;;11.20;99.90;;;;;;4146698;28;20073;-79
2023/11/05 05:47:04;;;;;;;2.95;0.70;;;11.20;99.90;;;;;;4145545;28;20044;-79
2023/11/05 05:49:06;;;;;;;1.85;0.77;;;11.10;99.90;;;;;;4154843;28;20046;-79
2023/11/05 05:51:12;;;;;;;0.73;0.43;;;11.10;99.90;;;;;;4149775;28;20064;-79
2023/11/05 05:53:12;;;;;;;4.88;0.93;;;11.20;99.90;;;;;;4146669;28;20053;-78
2023/11/05 05:55:15;;;;;;;1.35;0.70;;;11.10;99.90;;;;;;4144847;28;20206;-79
2023/11/05 05:57:15;;;;;;;0.93;0.73;;;11.20;99.90;;;;;;4142490;28;20117;-79
2023/11/05 05:59:16;;;;;;;1.70;0.82;;;11.10;99.90;;;;;;4145096;28;20064;-80
2023/11/05 06:01:18;;;;;;;2.92;0.82;;;11.10;99.90;;;;;;4141078;28;20650;-80
2023/11/05 06:03:19;;;;;;;0.82;0.50;;;11.10;99.90;;;;;;4145950;28;20092;-79
2023/11/05 06:05:19;;;;;;;2.97;1.15;;;11.10;99.90;;;;;;4141970;28;21488;-75
2023/11/05 06:07:20;;;;;;;2.08;0.80;;;11.10;99.90;;;;;;4144902;28;20034;-78
2023/11/05 06:09:22;;;;;;;0.93;0.40;;;11.10;99.90;;;;;;4147373;28;20026;-78
2023/11/05 06:11:23;;;;;;;1.98;0.70;;;11.10;99.90;;;;;;4141348;28;20072;-81
2023/11/05 06:13:23;;;;;;;0.45;0.32;;;11.10;99.90;;;;;;4145937;28;20030;-80
2023/11/05 06:15:24;;;;;;;4.45;0.77;;;11.10;99.90;;;;;;4141924;28;20046;-80
2023/11/05 06:17:25;;;;;;;2.97;0.95;;;11.10;99.90;;;;;;4113077;28;20034;-79
2023/11/05 06:19:25;;;;;;;3.05;0.85;;;11.10;99.90;;;;;;4151885;28;20036;-80
2023/11/05 06:21:26;;;;;;;2.35;0.73;;;11.10;99.90;;;;;;4143322;28;20041;-80
2023/11/05 06:23:26;;;;;;;2.28;0.70;;;11.10;99.90;;;;;;4140126;28;20041;-80
2023/11/05 06:25:27;;;;;;;1.13;0.65;;;11.20;99.90;;;;;;4141219;28;20428;-80
2023/11/05 06:27:27;;;;;;;1.67;0.88;;;11.20;99.90;;;;;;4146044;28;20402;-79
2023/11/05 06:29:28;;;;;;;2.30;1.17;;;11.20;99.90;;;;;;4140907;28;20034;-78
2023/11/05 06:31:29;;;;;;;1.23;0.70;;;11.20;99.90;;;;;;4124901;28;20395;-79
2023/11/05 06:33:33;;;;;;;2.85;0.60;;;11.20;99.90;;;;;;4128660;28;20041;-80
2023/11/05 06:35:34;;;;;;;1.35;0.70;;;11.20;99.90;;;;;;4124255;28;20038;-79
2023/11/05 06:37:35;;;;;;;3.55;0.80;;;11.20;99.90;;;;;;4126673;28;20030;-80
2023/11/05 06:39:35;;;;;;;1.83;0.80;;;11.20;99.90;;;;;;4124421;28;20042;-79
2023/11/05 06:41:36;;;;;;;1.38;0.93;;;11.20;99.90;;;;;;4106754;28;20687;-79
2023/11/05 06:43:36;;;;;;;1.02;0.70;;;11.20;99.90;;;;;;4111526;28;20113;-80
2023/11/05 06:45:37;;;;;;;1.60;0.82;;;11.30;99.90;;;;;;4128055;28;20030;-80
2023/11/05 06:47:37;;;;;;;1.73;0.90;;;11.20;99.90;;;;;;4128174;28;20031;-79
2023/11/05 06:49:38;;;;;;;2.08;1.08;;;11.20;99.90;;;;;;4131468;28;20117;-79
2023/11/05 06:51:39;;;;;;;2.40;0.77;;;11.20;99.90;;;;;;4128552;28;20039;-80
2023/11/05 06:53:39;;;;;;;2.63;0.77;;;11.20;99.90;;;;;;4127407;28;20041;-80
2023/11/05 06:55:40;;;;;;;1.63;0.73;;;11.20;99.90;;;;;;4130962;28;20034;-79
2023/11/05 06:57:40;;;;;;;1.88;0.68;;;11.20;99.90;;;;;;4106832;28;20066;-79
2023/11/05 06:59:41;;;;;;;2.15;1.00;;;11.20;99.90;;;;;;4119172;28;20030;-79
2023/11/05 07:01:42;;;;;;;0.82;0.40;;;11.20;99.90;;;;;;4111563;28;21983;-79
2023/11/05 07:03:43;;;;;;;0.77;0.45;;;11.20;99.90;;;;;;4125319;28;20085;-79
2023/11/05 07:05:47;;;;;;;2.23;0.93;;;11.10;99.90;;;;;;4120182;28;20407;-70
2023/11/05 07:07:48;;;;;;;1.83;0.75;;;11.10;99.90;;;;;;4123401;28;20506;-67
2023/11/05 07:09:50;;;;;;;0.90;0.50;;;11.20;99.90;;;;;;4125725;28;20042;-67
2023/11/05 07:11:51;;;;;;;;;;;11.20;99.90;;;;;;4124530;28;20042;-67
2023/11/05 07:13:52;;;;;;;1.40;0.68;;;11.10;99.90;;;;;;4123825;28;19917;-67
2023/11/05 07:15:53;;;;;;;0.88;0.50;;;11.20;99.90;;;;;;4108421;28;20665;-68
2023/11/05 07:17:54;;;;;;;2.28;0.30;;;11.10;99.90;;;;;;4128162;28;20079;-68
2023/11/05 07:19:55;;;;;;;0.65;0.30;;;11.20;99.90;;;;;;4124093;28;20034;-67
2023/11/05 07:21:55;;;;;;;1.02;0.50;;;11.10;99.90;;;;;;4125514;28;20118;-67
2023/11/05 07:23:56;;;;;;;0.38;0.30;;;11.10;99.90;;;;;;4124149;28;20042;-67
2023/11/05 07:25:56;;;;;;;1.17;0.50;;;11.10;99.90;;;;;;4122171;28;20030;-67
2023/11/05 07:27:58;;;;;;;2.00;0.70;;;11.20;99.90;;;;;;4124987;28;20518;-67
2023/11/05 07:29:59;;;;;;;0.57;0.40;;;11.20;99.90;;;;;;4125476;28;20173;-68
2023/11/05 07:32:00;;;;;;;0.40;0.28;;;11.20;99.90;;;;;;4123341;28;20034;-68
2023/11/05 07:34:00;;;;;;;0.95;0.50;;;11.30;99.90;;;;;;4125435;28;20047;-68
2023/11/05 07:36:01;;;;;;;1.30;0.63;;;11.20;99.90;;;;;;4122838;28;20246;-67
2023/11/05 07:38:02;;;;;;;0.77;0.50;;;11.30;99.90;;;;;;4124713;28;20085;-67
2023/11/05 07:40:03;;;;;;;0.85;0.63;;;11.20;99.90;;;;;;4125673;28;20037;-68
2023/11/05 07:42:04;;;;;;;0.68;0.43;;;11.20;99.90;;;;;;4127177;28;20399;-67
2023/11/05 07:44:05;;;;;;;2.72;0.60;;;11.20;99.90;;;;;;4127115;28;20462;-67
2023/11/05 07:46:07;;;;;;;1.15;0.40;;;11.20;99.90;;;;;;4115785;28;20073;-67
2023/11/05 07:48:08;;;;;;;0.73;0.25;;;11.20;99.90;;;;;;4124857;28;20026;-67
2023/11/05 07:50:13;;;;;;;0.73;0.50;;;11.30;99.90;;;;;;4111225;28;20531;-68
2023/11/05 07:52:14;;;;;;;1.48;0.63;;;11.30;99.90;;;;;;4127282;28;20034;-67
2023/11/05 07:54:15;;;;;;;0.77;0.20;;;11.40;99.90;;;;;;4126539;28;20039;-67
2023/11/05 07:56:16;;;;;;;0.55;0.30;;;11.50;99.90;;;;;;4120549;28;20672;-67
2023/11/05 07:58:17;;;;;;;0.65;0.38;;;11.50;99.90;;;;;;4121280;28;20469;-67
2023/11/05 08:00:18;;;;;;;0.45;0.35;;;11.50;99.90;;;;;;4122934;28;20040;-67
2023/11/05 08:02:19;;;;;;;1.95;0.60;;;11.50;99.90;;;;;;4126766;28;20034;-67
2023/11/05 08:04:20;;;;;;;1.10;0.40;;;11.50;99.90;;;;;;4110557;28;20526;-67
2023/11/05 08:06:21;;;;;;;1.67;0.40;;;11.50;99.90;;;;;;4106754;28;20039;-67
2023/11/05 08:08:22;;;;;;;1.20;0.50;;;11.50;99.90;;;;;;4123399;28;20038;-68
2023/11/05 08:10:22;;;;;;;0.52;0.32;;;11.50;99.90;;;;;;4121386;28;20038;-68
2023/11/05 08:12:23;;;;;;;0.85;0.50;;;11.50;99.90;;;;;;4126401;28;20058;-69
2023/11/05 08:14:24;;;;;;;0.68;0.40;;;11.50;99.90;;;;;;4126622;28;20039;-68
2023/11/05 08:16:25;;;;;;;0.63;0.38;;;11.50;99.90;;;;;;4122946;28;20069;-72
2023/11/05 08:18:25;;;;;;;0.98;0.63;;;11.50;99.90;;;;;;4126025;28;20054;-73
2023/11/05 08:20:26;;;;;;;2.63;0.63;;;11.50;99.90;;;;;;4125075;28;20141;-73
2023/11/05 08:22:27;;;;;;;2.63;0.77;;;11.50;99.90;;;;;;4126702;28;20030;-73
2023/11/05 08:24:27;;;;;;;2.20;0.50;;;11.50;99.90;;;;;;4125393;28;20042;-73
2023/11/05 08:26:28;;;;;;;1.13;0.30;;;11.50;99.90;;;;;;4124155;28;20038;-73
2023/11/05 08:28:29;;;;;;;1.48;0.45;;;11.60;99.90;;;;;;4126228;28;20125;-73
2023/11/05 08:30:29;;;;;;;1.13;0.50;;;11.60;99.90;;;;;;4129460;28;20133;-73
2023/11/05 08:32:30;;;;;;;1.05;0.40;;;11.60;99.90;;;;;;4142324;28;20041;-74
2023/11/05 08:34:30;;;;;;;0.82;0.35;;;11.60;99.90;;;;;;4142657;28;20556;-73
2023/11/05 08:36:31;;;;;;;1.02;0.50;;;11.70;99.90;;;;;;4142272;28;20073;-73
2023/11/05 08:38:31;;;;;;;0.63;0.40;;;11.70;99.90;;;;;;4142793;28;20049;-73
2023/11/05 08:40:32;;;;;;;1.00;0.40;;;11.80;99.90;;;;;;4141861;28;20253;-72
2023/11/05 08:42:33;;;;;;;1.92;0.60;;;11.80;99.90;;;;;;4144011;28;20040;-73
2023/11/05 08:44:34;;;;;;;1.77;0.60;;;11.90;99.90;;;;;;4143941;28;20419;-74
2023/11/05 08:46:35;;;;;;;1.42;0.60;;;11.90;99.90;;;;;;4139916;28;20038;-73
2023/11/05 08:48:35;;;;;;;1.27;0.55;;;11.90;99.90;;;;;;4141072;28;20442;-74
2023/11/05 08:50:36;;;;;;;2.83;0.63;;;11.90;99.90;;;;;;4140834;28;20467;-73
2023/11/05 08:52:37;;;;;;;1.35;0.50;;;11.90;99.90;;;;;;4142932;28;20033;-73
2023/11/05 08:54:37;;;;;;;1.48;0.63;;;11.90;99.90;;;;;;4141326;28;20050;-74
2023/11/05 08:56:38;;;;;;;1.23;0.40;;;11.80;99.90;;;;;;4140630;28;20061;-73
2023/11/05 08:58:39;;;;;;;1.30;0.47;;;11.80;99.90;;;;;;4140596;28;20117;-73
2023/11/05 09:00:40;;;;;;;3.20;0.70;;;11.90;99.90;;;;;;4128907;28;20528;-73
2023/11/05 09:02:41;;;;;;;2.15;0.60;;;11.90;99.90;;;;;;4131966;28;20075;-73
2023/11/05 09:04:42;;;;;;;2.83;0.68;;;11.90;99.90;;;;;;4137493;28;20573;-73
2023/11/05 09:06:44;;;;;;;1.85;0.60;;;11.80;99.90;;;;;;4136034;28;20042;-73
2023/11/05 09:08:45;;;;;;;;;;;11.90;99.90;;;;;;4142525;28;20434;-72
2023/11/05 09:10:45;;;;;;;1.33;0.75;;;11.90;99.90;;;;;;4143975;28;19918;-73
2023/11/05 09:12:48;;;;;;;1.80;0.52;;;11.90;99.90;;;;;;4140534;28;20049;-72
2023/11/05 09:14:48;;;;;;;1.42;0.60;;;11.90;99.90;;;;;;4141403;28;20050;-72
2023/11/05 09:16:49;;;;;;;1.95;0.70;;;11.90;99.90;;;;;;4135950;28;20065;-72
2023/11/05 09:18:50;;;;;;;1.35;0.73;;;12.00;99.90;;;;;;4140093;28;20046;-72
2023/11/05 09:20:51;;;;;;;1.70;0.50;;;11.90;99.90;;;;;;4137307;28;20042;-72
2023/11/05 09:22:51;;;;;;;2.67;0.90;;;11.90;99.90;;;;;;4142137;28;20057;-72
2023/11/05 09:24:52;;;;;;;3.05;0.85;;;11.90;99.90;;;;;;4140838;28;20542;-72
2023/11/05 09:26:53;;;;;;;3.28;1.15;;;11.90;99.90;;;;;;4153598;28;20438;-72
2023/11/05 09:28:54;;;;;;;2.25;0.50;;;11.90;99.90;;;;;;4137773;28;20037;-73
2023/11/05 09:30:55;;;;;;;1.45;0.73;;;11.90;99.90;;;;;;4153642;28;20649;-73
2023/11/05 09:32:56;;;;;;;1.90;0.82;;;12.00;99.90;;;;;;4139691;28;20034;-73
2023/11/05 09:34:57;;;;;;;2.53;0.77;;;12.00;99.90;;;;;;4138147;28;20099;-73
2023/11/05 09:36:57;;;;;;;4.63;1.15;;;12.00;99.90;;;;;;4139028;28;20034;-72
2023/11/05 09:38:58;;;;;;;5.10;0.70;;;12.00;99.90;;;;;;4142334;28;20044;-73
2023/11/05 09:40:59;;;;;;;1.55;0.70;;;11.90;99.90;;;;;;4136220;28;20034;-72
2023/11/05 09:43:04;;;;;;;4.18;0.80;;;12.00;99.90;;;;;;4137193;28;20034;-71
2023/11/05 09:45:06;;;;;;;4.53;1.08;;;12.00;99.90;;;;;;4135914;28;20419;-75
2023/11/05 09:47:09;;;;;;;1.80;0.95;;;12.00;99.90;;;;;;4138680;28;20071;-73
2023/11/05 09:49:12;;;;;;;1.88;0.80;;;12.00;99.90;;;;;;4141837;28;20034;-72
2023/11/05 09:51:13;;;;;;;2.38;0.63;;;12.00;99.90;;;;;;4142630;28;20025;-73
2023/11/05 09:53:15;;;;;;;3.85;1.00;;;12.10;99.90;;;;;;4144049;28;20127;-73
2023/11/05 09:55:16;;;;;;;1.80;0.70;;;12.00;99.90;;;;;;4140099;28;20441;-73
2023/11/05 09:57:17;;;;;;;3.35;0.70;;;12.10;99.90;;;;;;4140793;28;20084;-74
2023/11/05 09:59:18;;;;;;;2.65;0.73;;;12.00;99.90;;;;;;4140789;28;20042;-72
2023/11/05 10:01:18;;;;;;;2.25;0.63;;;12.10;99.90;;;;;;4140311;28;20124;-72
2023/11/05 10:03:19;;;;;;;3.47;0.80;;;12.10;99.90;;;;;;4141475;28;20037;-73
2023/11/05 10:05:19;;;;;;;4.28;0.90;;;12.10;99.90;;;;;;4140139;28;20122;-73
2023/11/05 10:07:21;;;;;;;1.58;0.60;;;12.10;99.90;;;;;;4142850;28;20133;-72
2023/11/05 10:09:23;;;;;;;1.88;0.70;;;12.10;99.90;;;;;;4144874;28;20548;-72
2023/11/05 10:11:25;;;;;;;3.75;0.73;;;12.10;99.90;;;;;;4138451;28;20034;-73
2023/11/05 10:13:29;;;;;;;2.72;1.10;;;12.10;99.90;;;;;;4141935;28;20026;-72
2023/11/05 10:15:33;;;;;;;2.08;0.85;;;12.20;99.90;;;;;;4136446;28;20462;-73
2023/11/05 10:17:33;;;;;;;1.48;0.68;;;12.20;99.90;;;;;;4138519;28;20125;-73
2023/11/05 10:19:36;;;;;;;1.20;0.82;;;12.20;99.90;;;;;;4139835;28;20108;-73
2023/11/05 10:21:40;;;;;;;0.50;0.43;;;12.20;99.90;;;;;;4137695;28;20119;-72
2023/11/05 10:23:52;;;;;;;2.80;0.80;;;12.20;99.90;;;;;;4138271;28;20585;-73
2023/11/05 10:25:54;;;;;;;1.88;0.50;;;12.20;99.90;;;;;;4137579;28;20096;-72
2023/11/05 10:27:55;;;;;;;1.95;0.57;;;12.20;99.90;;;;;;4145955;28;20503;-73
2023/11/05 10:29:57;;;;;;;1.80;0.70;;;12.20;99.90;;;;;;4137183;28;20082;-72